Terminal Aerodrome Forecast
Issued by NWS Wilmington, OH

Current Version | Previous Version | Graphics & Text | Print | Product List | Glossary On
Versions: 1 2 3 4 5 6 7 8 9 10 11 12 13 14 15 16 17 18 19 20 21 22 23 24 25
000
FTUS41 KILN 040100 AAA
TAFDAY
TAF AMD
KDAY 040123Z 0401/0424 26011G19KT P6SM -RA BKN008 OVC022
     FM040600 29010KT 5SM -RA BR OVC008
      TEMPO 0411/0413 2SM -SN BR OVC006
     FM041300 33010KT 4SM BR OVC012
     FM042100 33012KT 1 1/2SM -SN BR OVC007=

USA.gov is the U.S. government's official web portal to all federal, state and local government web resources and services.